sensor_id;sensor_type;location;lat;lon;timestamp;P1;durP1;ratioP1;P2;durP2;ratioP2
53391;SDS011;41667;51.922;8.850;2022-08-19T00:00:35;9.40;;;5.63;;
53391;SDS011;41667;51.922;8.850;2022-08-19T00:03:00;8.73;;;5.75;;
53391;SDS011;41667;51.922;8.850;2022-08-19T00:05:26;7.20;;;5.07;;
53391;SDS011;41667;51.922;8.850;2022-08-19T00:07:51;11.30;;;5.70;;
53391;SDS011;41667;51.922;8.850;2022-08-19T00:10:17;9.05;;;5.53;;
53391;SDS011;41667;51.922;8.850;2022-08-19T00:12:43;6.65;;;5.20;;
53391;SDS011;41667;51.922;8.850;2022-08-19T00:15:10;19.13;;;5.65;;
53391;SDS011;41667;51.922;8.850;2022-08-19T00:17:41;9.48;;;5.25;;
53391;SDS011;41667;51.922;8.850;2022-08-19T00:20:07;8.05;;;5.57;;
53391;SDS011;41667;51.922;8.850;2022-08-19T00:22:32;8.65;;;5.50;;
53391;SDS011;41667;51.922;8.850;2022-08-19T00:24:58;8.05;;;5.97;;
53391;SDS011;41667;51.922;8.850;2022-08-19T00:27:23;7.67;;;5.73;;
53391;SDS011;41667;51.922;8.850;2022-08-19T00:29:48;7.57;;;5.32;;
53391;SDS011;41667;51.922;8.850;2022-08-19T00:32:13;8.50;;;6.13;;
53391;SDS011;41667;51.922;8.850;2022-08-19T00:34:38;9.85;;;6.22;;
53391;SDS011;41667;51.922;8.850;2022-08-19T00:37:04;8.97;;;5.20;;
53391;SDS011;41667;51.922;8.850;2022-08-19T00:39:29;8.45;;;4.80;;
53391;SDS011;41667;51.922;8.850;2022-08-19T00:41:54;8.10;;;5.63;;
53391;SDS011;41667;51.922;8.850;2022-08-19T00:44:29;9.70;;;5.83;;
53391;SDS011;41667;51.922;8.850;2022-08-19T00:46:56;6.68;;;4.90;;
53391;SDS011;41667;51.922;8.850;2022-08-19T00:49:32;6.25;;;4.93;;
53391;SDS011;41667;51.922;8.850;2022-08-19T00:52:05;5.63;;;4.80;;
53391;SDS011;41667;51.922;8.850;2022-08-19T00:54:31;8.13;;;5.40;;
53391;SDS011;41667;51.922;8.850;2022-08-19T00:56:57;11.95;;;5.22;;
53391;SDS011;41667;51.922;8.850;2022-08-19T00:59:22;8.52;;;5.40;;
53391;SDS011;41667;51.922;8.850;2022-08-19T01:01:47;9.65;;;5.65;;
53391;SDS011;41667;51.922;8.850;2022-08-19T01:04:13;7.22;;;5.47;;
53391;SDS011;41667;51.922;8.850;2022-08-19T01:06:39;7.22;;;4.65;;
53391;SDS011;41667;51.922;8.850;2022-08-19T01:09:05;11.10;;;6.07;;
53391;SDS011;41667;51.922;8.850;2022-08-19T01:11:34;10.70;;;6.27;;
53391;SDS011;41667;51.922;8.850;2022-08-19T01:14:00;7.50;;;5.75;;
53391;SDS011;41667;51.922;8.850;2022-08-19T01:16:25;6.37;;;5.60;;
53391;SDS011;41667;51.922;8.850;2022-08-19T01:18:51;9.23;;;5.90;;
53391;SDS011;41667;51.922;8.850;2022-08-19T01:23:51;7.65;;;5.72;;
53391;SDS011;41667;51.922;8.850;2022-08-19T01:26:17;9.40;;;6.37;;
53391;SDS011;41667;51.922;8.850;2022-08-19T01:28:44;8.65;;;6.15;;
53391;SDS011;41667;51.922;8.850;2022-08-19T01:31:13;8.48;;;6.05;;
53391;SDS011;41667;51.922;8.850;2022-08-19T01:33:38;7.82;;;5.88;;
53391;SDS011;41667;51.922;8.850;2022-08-19T01:36:05;15.50;;;7.53;;
53391;SDS011;41667;51.922;8.850;2022-08-19T01:38:30;10.13;;;7.47;;
53391;SDS011;41667;51.922;8.850;2022-08-19T01:40:56;10.43;;;6.03;;
53391;SDS011;41667;51.922;8.850;2022-08-19T01:43:21;10.57;;;6.60;;
53391;SDS011;41667;51.922;8.850;2022-08-19T01:45:46;9.98;;;6.30;;
53391;SDS011;41667;51.922;8.850;2022-08-19T01:48:12;11.85;;;6.40;;
53391;SDS011;41667;51.922;8.850;2022-08-19T01:50:37;10.48;;;6.68;;
53391;SDS011;41667;51.922;8.850;2022-08-19T01:53:04;16.37;;;7.50;;
53391;SDS011;41667;51.922;8.850;2022-08-19T01:55:29;9.80;;;6.50;;
53391;SDS011;41667;51.922;8.850;2022-08-19T01:57:57;11.43;;;6.82;;
53391;SDS011;41667;51.922;8.850;2022-08-19T02:00:23;9.77;;;6.13;;
53391;SDS011;41667;51.922;8.850;2022-08-19T02:02:49;10.38;;;6.70;;
53391;SDS011;41667;51.922;8.850;2022-08-19T02:05:14;10.20;;;6.85;;
53391;SDS011;41667;51.922;8.850;2022-08-19T02:07:43;10.63;;;6.20;;
53391;SDS011;41667;51.922;8.850;2022-08-19T02:10:10;9.02;;;6.60;;
53391;SDS011;41667;51.922;8.850;2022-08-19T02:12:36;17.05;;;7.97;;
53391;SDS011;41667;51.922;8.850;2022-08-19T02:15:02;11.97;;;6.50;;
53391;SDS011;41667;51.922;8.850;2022-08-19T02:17:28;13.30;;;7.90;;
53391;SDS011;41667;51.922;8.850;2022-08-19T02:19:54;11.60;;;7.38;;
53391;SDS011;41667;51.922;8.850;2022-08-19T02:22:19;13.02;;;8.00;;
53391;SDS011;41667;51.922;8.850;2022-08-19T02:24:44;11.82;;;8.10;;
53391;SDS011;41667;51.922;8.850;2022-08-19T02:27:09;13.05;;;7.30;;
53391;SDS011;41667;51.922;8.850;2022-08-19T02:29:35;11.60;;;7.80;;
53391;SDS011;41667;51.922;8.850;2022-08-19T02:32:00;9.40;;;7.53;;
53391;SDS011;41667;51.922;8.850;2022-08-19T02:34:25;11.38;;;7.28;;
53391;SDS011;41667;51.922;8.850;2022-08-19T02:36:51;15.30;;;8.52;;
53391;SDS011;41667;51.922;8.850;2022-08-19T02:39:16;13.80;;;8.13;;
53391;SDS011;41667;51.922;8.850;2022-08-19T02:41:42;10.90;;;7.53;;
53391;SDS011;41667;51.922;8.850;2022-08-19T02:44:07;14.98;;;8.30;;
53391;SDS011;41667;51.922;8.850;2022-08-19T02:46:32;13.60;;;8.30;;
53391;SDS011;41667;51.922;8.850;2022-08-19T02:48:59;13.48;;;7.93;;
53391;SDS011;41667;51.922;8.850;2022-08-19T02:51:35;13.98;;;8.15;;
53391;SDS011;41667;51.922;8.850;2022-08-19T02:54:00;11.43;;;7.78;;
53391;SDS011;41667;51.922;8.850;2022-08-19T02:56:26;11.82;;;8.52;;
53391;SDS011;41667;51.922;8.850;2022-08-19T02:58:52;15.63;;;9.68;;
53391;SDS011;41667;51.922;8.850;2022-08-19T03:01:21;11.35;;;7.78;;
53391;SDS011;41667;51.922;8.850;2022-08-19T03:03:47;14.85;;;8.65;;
53391;SDS011;41667;51.922;8.850;2022-08-19T03:06:13;14.38;;;8.70;;
53391;SDS011;41667;51.922;8.850;2022-08-19T03:08:39;11.13;;;8.10;;
53391;SDS011;41667;51.922;8.850;2022-08-19T03:11:04;12.35;;;7.65;;
53391;SDS011;41667;51.922;8.850;2022-08-19T03:13:30;12.30;;;8.10;;
53391;SDS011;41667;51.922;8.850;2022-08-19T03:15:55;13.40;;;7.65;;
53391;SDS011;41667;51.922;8.850;2022-08-19T03:18:20;11.90;;;7.85;;
53391;SDS011;41667;51.922;8.850;2022-08-19T03:20:46;13.95;;;8.38;;
53391;SDS011;41667;51.922;8.850;2022-08-19T03:23:12;14.82;;;8.63;;
53391;SDS011;41667;51.922;8.850;2022-08-19T03:25:41;13.00;;;8.20;;
53391;SDS011;41667;51.922;8.850;2022-08-19T03:28:08;12.45;;;8.88;;
53391;SDS011;41667;51.922;8.850;2022-08-19T03:30:33;14.30;;;9.15;;
53391;SDS011;41667;51.922;8.850;2022-08-19T03:32:58;11.80;;;8.83;;
53391;SDS011;41667;51.922;8.850;2022-08-19T03:35:23;12.95;;;8.18;;
53391;SDS011;41667;51.922;8.850;2022-08-19T03:37:49;13.88;;;8.93;;
53391;SDS011;41667;51.922;8.850;2022-08-19T03:40:14;14.30;;;9.73;;
53391;SDS011;41667;51.922;8.850;2022-08-19T03:42:39;13.87;;;9.43;;
53391;SDS011;41667;51.922;8.850;2022-08-19T03:45:07;14.82;;;10.73;;
53391;SDS011;41667;51.922;8.850;2022-08-19T03:47:32;18.83;;;10.65;;
53391;SDS011;41667;51.922;8.850;2022-08-19T03:49:58;16.25;;;10.48;;
53391;SDS011;41667;51.922;8.850;2022-08-19T03:52:23;15.40;;;10.65;;
53391;SDS011;41667;51.922;8.850;2022-08-19T03:54:48;15.13;;;9.15;;
53391;SDS011;41667;51.922;8.850;2022-08-19T03:57:13;20.13;;;10.50;;
53391;SDS011;41667;51.922;8.850;2022-08-19T03:59:38;14.10;;;9.77;;
53391;SDS011;41667;51.922;8.850;2022-08-19T04:02:06;15.35;;;9.35;;
53391;SDS011;41667;51.922;8.850;2022-08-19T04:04:33;15.18;;;9.23;;
53391;SDS011;41667;51.922;8.850;2022-08-19T04:06:58;19.42;;;9.05;;
53391;SDS011;41667;51.922;8.850;2022-08-19T04:09:24;10.37;;;7.50;;
53391;SDS011;41667;51.922;8.850;2022-08-19T04:11:50;16.02;;;8.13;;
53391;SDS011;41667;51.922;8.850;2022-08-19T04:14:19;12.23;;;8.23;;
53391;SDS011;41667;51.922;8.850;2022-08-19T04:16:45;13.48;;;7.53;;
53391;SDS011;41667;51.922;8.850;2022-08-19T04:19:12;14.27;;;8.00;;
53391;SDS011;41667;51.922;8.850;2022-08-19T04:21:37;15.25;;;7.70;;
53391;SDS011;41667;51.922;8.850;2022-08-19T04:24:04;11.02;;;7.32;;
53391;SDS011;41667;51.922;8.850;2022-08-19T04:26:31;8.38;;;7.00;;
53391;SDS011;41667;51.922;8.850;2022-08-19T04:28:59;14.30;;;8.52;;
53391;SDS011;41667;51.922;8.850;2022-08-19T04:31:26;11.10;;;7.85;;
53391;SDS011;41667;51.922;8.850;2022-08-19T04:33:55;11.88;;;7.88;;
53391;SDS011;41667;51.922;8.850;2022-08-19T04:36:22;11.40;;;7.72;;
53391;SDS011;41667;51.922;8.850;2022-08-19T04:38:48;11.05;;;7.55;;
53391;SDS011;41667;51.922;8.850;2022-08-19T04:41:14;7.88;;;6.40;;
53391;SDS011;41667;51.922;8.850;2022-08-19T04:43:59;9.82;;;6.35;;
53391;SDS011;41667;51.922;8.850;2022-08-19T04:46:24;10.32;;;6.40;;
53391;SDS011;41667;51.922;8.850;2022-08-19T04:48:49;9.35;;;5.85;;
53391;SDS011;41667;51.922;8.850;2022-08-19T04:51:14;7.03;;;5.77;;
53391;SDS011;41667;51.922;8.850;2022-08-19T04:53:40;6.05;;;5.40;;
53391;SDS011;41667;51.922;8.850;2022-08-19T04:56:07;7.63;;;5.40;;
53391;SDS011;41667;51.922;8.850;2022-08-19T04:58:33;5.38;;;4.22;;
53391;SDS011;41667;51.922;8.850;2022-08-19T05:00:58;7.07;;;5.35;;
53391;SDS011;41667;51.922;8.850;2022-08-19T05:03:25;8.27;;;4.25;;
53391;SDS011;41667;51.922;8.850;2022-08-19T05:05:50;6.00;;;4.22;;
53391;SDS011;41667;51.922;8.850;2022-08-19T05:08:17;4.95;;;4.43;;
53391;SDS011;41667;51.922;8.850;2022-08-19T05:10:47;8.25;;;4.10;;
53391;SDS011;41667;51.922;8.850;2022-08-19T05:13:13;7.43;;;3.92;;
53391;SDS011;41667;51.922;8.850;2022-08-19T05:15:38;6.47;;;4.45;;
53391;SDS011;41667;51.922;8.850;2022-08-19T05:18:03;5.93;;;4.57;;
53391;SDS011;41667;51.922;8.850;2022-08-19T05:20:47;5.38;;;3.95;;
53391;SDS011;41667;51.922;8.850;2022-08-19T05:23:31;6.88;;;4.80;;
53391;SDS011;41667;51.922;8.850;2022-08-19T05:25:56;4.95;;;4.38;;
53391;SDS011;41667;51.922;8.850;2022-08-19T05:28:22;6.47;;;3.97;;
53391;SDS011;41667;51.922;8.850;2022-08-19T05:30:47;5.55;;;3.63;;
53391;SDS011;41667;51.922;8.850;2022-08-19T05:33:13;9.30;;;4.85;;
53391;SDS011;41667;51.922;8.850;2022-08-19T05:35:38;6.53;;;4.77;;
53391;SDS011;41667;51.922;8.850;2022-08-19T05:38:04;8.45;;;4.90;;
53391;SDS011;41667;51.922;8.850;2022-08-19T05:40:29;5.55;;;4.85;;
53391;SDS011;41667;51.922;8.850;2022-08-19T05:42:54;10.45;;;5.00;;
53391;SDS011;41667;51.922;8.850;2022-08-19T05:45:20;9.32;;;5.22;;
53391;SDS011;41667;51.922;8.850;2022-08-19T05:47:46;6.80;;;5.25;;
53391;SDS011;41667;51.922;8.850;2022-08-19T05:50:11;8.03;;;5.87;;
53391;SDS011;41667;51.922;8.850;2022-08-19T05:52:37;8.47;;;5.97;;
53391;SDS011;41667;51.922;8.850;2022-08-19T05:55:03;12.57;;;5.93;;
53391;SDS011;41667;51.922;8.850;2022-08-19T05:57:28;11.55;;;6.00;;
53391;SDS011;41667;51.922;8.850;2022-08-19T05:59:53;8.10;;;5.82;;
53391;SDS011;41667;51.922;8.850;2022-08-19T06:02:19;7.60;;;5.47;;
53391;SDS011;41667;51.922;8.850;2022-08-19T06:04:44;8.80;;;5.90;;
53391;SDS011;41667;51.922;8.850;2022-08-19T06:07:09;8.68;;;5.45;;
53391;SDS011;41667;51.922;8.850;2022-08-19T06:09:34;7.15;;;4.88;;
53391;SDS011;41667;51.922;8.850;2022-08-19T06:12:00;9.00;;;5.20;;
53391;SDS011;41667;51.922;8.850;2022-08-19T06:14:28;5.50;;;4.35;;
53391;SDS011;41667;51.922;8.850;2022-08-19T06:16:54;4.55;;;4.10;;
53391;SDS011;41667;51.922;8.850;2022-08-19T06:19:20;6.07;;;4.47;;
53391;SDS011;41667;51.922;8.850;2022-08-19T06:21:47;9.38;;;5.53;;
53391;SDS011;41667;51.922;8.850;2022-08-19T06:24:14;5.57;;;4.60;;
53391;SDS011;41667;51.922;8.850;2022-08-19T06:26:40;7.57;;;4.47;;
53391;SDS011;41667;51.922;8.850;2022-08-19T06:29:06;6.78;;;4.60;;
53391;SDS011;41667;51.922;8.850;2022-08-19T06:31:31;7.10;;;4.63;;
53391;SDS011;41667;51.922;8.850;2022-08-19T06:33:58;6.55;;;5.03;;
53391;SDS011;41667;51.922;8.850;2022-08-19T06:36:25;8.77;;;5.18;;
53391;SDS011;41667;51.922;8.850;2022-08-19T06:38:56;5.82;;;5.07;;
53391;SDS011;41667;51.922;8.850;2022-08-19T06:41:24;9.70;;;5.32;;
53391;SDS011;41667;51.922;8.850;2022-08-19T06:43:50;12.43;;;4.93;;
53391;SDS011;41667;51.922;8.850;2022-08-19T06:46:16;7.20;;;4.67;;
53391;SDS011;41667;51.922;8.850;2022-08-19T06:48:43;6.78;;;5.22;;
53391;SDS011;41667;51.922;8.850;2022-08-19T06:51:08;5.93;;;4.80;;
53391;SDS011;41667;51.922;8.850;2022-08-19T06:53:33;6.10;;;4.60;;
53391;SDS011;41667;51.922;8.850;2022-08-19T06:55:58;9.30;;;4.30;;
53391;SDS011;41667;51.922;8.850;2022-08-19T06:58:27;7.88;;;5.57;;
53391;SDS011;41667;51.922;8.850;2022-08-19T07:00:53;6.25;;;5.03;;
53391;SDS011;41667;51.922;8.850;2022-08-19T07:03:18;5.85;;;4.75;;
53391;SDS011;41667;51.922;8.850;2022-08-19T07:05:43;5.75;;;4.28;;
53391;SDS011;41667;51.922;8.850;2022-08-19T07:08:08;10.43;;;4.70;;
53391;SDS011;41667;51.922;8.850;2022-08-19T07:10:34;5.55;;;4.55;;
53391;SDS011;41667;51.922;8.850;2022-08-19T07:13:00;6.90;;;5.72;;
53391;SDS011;41667;51.922;8.850;2022-08-19T07:15:25;5.53;;;4.90;;
53391;SDS011;41667;51.922;8.850;2022-08-19T07:17:51;7.85;;;4.85;;
53391;SDS011;41667;51.922;8.850;2022-08-19T07:20:17;8.35;;;4.85;;
53391;SDS011;41667;51.922;8.850;2022-08-19T07:22:42;6.53;;;5.15;;
53391;SDS011;41667;51.922;8.850;2022-08-19T07:25:08;5.72;;;5.13;;
53391;SDS011;41667;51.922;8.850;2022-08-19T07:27:33;6.07;;;5.07;;
53391;SDS011;41667;51.922;8.850;2022-08-19T07:29:59;7.70;;;5.07;;
53391;SDS011;41667;51.922;8.850;2022-08-19T07:32:24;7.35;;;4.55;;
53391;SDS011;41667;51.922;8.850;2022-08-19T07:34:52;7.60;;;4.95;;
53391;SDS011;41667;51.922;8.850;2022-08-19T07:37:17;10.60;;;5.20;;
53391;SDS011;41667;51.922;8.850;2022-08-19T07:39:43;10.07;;;4.10;;
53391;SDS011;41667;51.922;8.850;2022-08-19T07:42:08;6.40;;;4.30;;
53391;SDS011;41667;51.922;8.850;2022-08-19T07:44:34;5.05;;;3.95;;
53391;SDS011;41667;51.922;8.850;2022-08-19T07:47:00;7.97;;;4.90;;
53391;SDS011;41667;51.922;8.850;2022-08-19T07:49:26;5.25;;;4.20;;
53391;SDS011;41667;51.922;8.850;2022-08-19T07:51:53;7.85;;;4.22;;
53391;SDS011;41667;51.922;8.850;2022-08-19T07:54:18;8.15;;;3.70;;
53391;SDS011;41667;51.922;8.850;2022-08-19T07:56:44;4.30;;;3.78;;
53391;SDS011;41667;51.922;8.850;2022-08-19T07:59:09;5.13;;;3.93;;
53391;SDS011;41667;51.922;8.850;2022-08-19T08:01:34;5.90;;;4.32;;
53391;SDS011;41667;51.922;8.850;2022-08-19T08:03:59;6.68;;;4.35;;
53391;SDS011;41667;51.922;8.850;2022-08-19T08:06:43;3.83;;;3.33;;
53391;SDS011;41667;51.922;8.850;2022-08-19T08:09:37;6.55;;;3.95;;
53391;SDS011;41667;51.922;8.850;2022-08-19T08:12:05;7.97;;;3.60;;
53391;SDS011;41667;51.922;8.850;2022-08-19T08:14:34;6.72;;;4.63;;
53391;SDS011;41667;51.922;8.850;2022-08-19T08:17:00;4.97;;;4.47;;
53391;SDS011;41667;51.922;8.850;2022-08-19T08:19:26;6.03;;;4.22;;
53391;SDS011;41667;51.922;8.850;2022-08-19T08:21:52;6.70;;;4.97;;
53391;SDS011;41667;51.922;8.850;2022-08-19T08:24:18;8.60;;;4.70;;
53391;SDS011;41667;51.922;8.850;2022-08-19T08:26:43;7.22;;;4.63;;
53391;SDS011;41667;51.922;8.850;2022-08-19T08:29:09;6.55;;;4.43;;
53391;SDS011;41667;51.922;8.850;2022-08-19T08:31:35;5.57;;;4.00;;
53391;SDS011;41667;51.922;8.850;2022-08-19T08:34:00;4.82;;;4.00;;
53391;SDS011;41667;51.922;8.850;2022-08-19T08:36:25;5.00;;;3.70;;
53391;SDS011;41667;51.922;8.850;2022-08-19T08:38:50;5.30;;;4.33;;
53391;SDS011;41667;51.922;8.850;2022-08-19T08:41:31;4.40;;;3.65;;
53391;SDS011;41667;51.922;8.850;2022-08-19T08:43:58;3.92;;;3.35;;
53391;SDS011;41667;51.922;8.850;2022-08-19T08:46:33;5.35;;;4.00;;
53391;SDS011;41667;51.922;8.850;2022-08-19T08:51:34;7.78;;;3.38;;
53391;SDS011;41667;51.922;8.850;2022-08-19T08:54:00;3.97;;;3.63;;
53391;SDS011;41667;51.922;8.850;2022-08-19T08:56:26;4.68;;;3.28;;
53391;SDS011;41667;51.922;8.850;2022-08-19T09:01:16;5.55;;;2.97;;
53391;SDS011;41667;51.922;8.850;2022-08-19T09:03:42;6.30;;;4.07;;
53391;SDS011;41667;51.922;8.850;2022-08-19T09:06:14;4.45;;;3.17;;
53391;SDS011;41667;51.922;8.850;2022-08-19T09:14:08;5.63;;;3.63;;
53391;SDS011;41667;51.922;8.850;2022-08-19T09:16:34;7.30;;;4.07;;
53391;SDS011;41667;51.922;8.850;2022-08-19T09:19:04;3.42;;;3.13;;
53391;SDS011;41667;51.922;8.850;2022-08-19T09:21:30;3.90;;;2.90;;
53391;SDS011;41667;51.922;8.850;2022-08-19T09:23:55;3.15;;;2.85;;
53391;SDS011;41667;51.922;8.850;2022-08-19T09:26:21;6.00;;;2.90;;
53391;SDS011;41667;51.922;8.850;2022-08-19T09:28:47;4.55;;;2.97;;
53391;SDS011;41667;51.922;8.850;2022-08-19T09:31:13;6.60;;;3.95;;
53391;SDS011;41667;51.922;8.850;2022-08-19T09:33:39;3.70;;;3.38;;
53391;SDS011;41667;51.922;8.850;2022-08-19T09:36:05;3.25;;;2.95;;
53391;SDS011;41667;51.922;8.850;2022-08-19T09:38:32;4.60;;;3.05;;
53391;SDS011;41667;51.922;8.850;2022-08-19T09:41:01;2.97;;;2.78;;
53391;SDS011;41667;51.922;8.850;2022-08-19T09:43:26;3.80;;;2.53;;
53391;SDS011;41667;51.922;8.850;2022-08-19T09:45:52;5.35;;;2.80;;
53391;SDS011;41667;51.922;8.850;2022-08-19T09:48:18;4.20;;;2.97;;
53391;SDS011;41667;51.922;8.850;2022-08-19T09:50:43;4.63;;;3.20;;
53391;SDS011;41667;51.922;8.850;2022-08-19T09:53:08;5.38;;;3.40;;
53391;SDS011;41667;51.922;8.850;2022-08-19T09:55:33;2.78;;;2.58;;
53391;SDS011;41667;51.922;8.850;2022-08-19T09:58:01;3.38;;;2.38;;
53391;SDS011;41667;51.922;8.850;2022-08-19T10:00:27;2.80;;;2.17;;
53391;SDS011;41667;51.922;8.850;2022-08-19T10:02:52;2.80;;;2.60;;
53391;SDS011;41667;51.922;8.850;2022-08-19T10:05:17;2.42;;;1.95;;
53391;SDS011;41667;51.922;8.850;2022-08-19T10:08:01;3.53;;;1.90;;
53391;SDS011;41667;51.922;8.850;2022-08-19T10:10:26;5.70;;;3.45;;
53391;SDS011;41667;51.922;8.850;2022-08-19T10:12:51;4.63;;;2.47;;
53391;SDS011;41667;51.922;8.850;2022-08-19T10:15:16;2.53;;;2.27;;
53391;SDS011;41667;51.922;8.850;2022-08-19T10:17:45;2.10;;;2.00;;
53391;SDS011;41667;51.922;8.850;2022-08-19T10:20:11;3.75;;;2.67;;
53391;SDS011;41667;51.922;8.850;2022-08-19T10:22:36;2.40;;;2.20;;
53391;SDS011;41667;51.922;8.850;2022-08-19T10:25:02;3.85;;;2.65;;
53391;SDS011;41667;51.922;8.850;2022-08-19T10:27:28;2.58;;;2.38;;
53391;SDS011;41667;51.922;8.850;2022-08-19T10:29:53;5.60;;;2.80;;
53391;SDS011;41667;51.922;8.850;2022-08-19T10:32:19;3.92;;;3.00;;
53391;SDS011;41667;51.922;8.850;2022-08-19T10:34:44;2.97;;;2.77;;
53391;SDS011;41667;51.922;8.850;2022-08-19T10:37:09;2.70;;;1.90;;
53391;SDS011;41667;51.922;8.850;2022-08-19T10:39:35;2.95;;;2.03;;
53391;SDS011;41667;51.922;8.850;2022-08-19T10:42:04;4.93;;;2.03;;
53391;SDS011;41667;51.922;8.850;2022-08-19T10:44:29;3.88;;;2.22;;
53391;SDS011;41667;51.922;8.850;2022-08-19T10:46:54;2.30;;;1.93;;
53391;SDS011;41667;51.922;8.850;2022-08-19T10:49:20;3.28;;;2.10;;
53391;SDS011;41667;51.922;8.850;2022-08-19T10:51:45;2.58;;;1.90;;
53391;SDS011;41667;51.922;8.850;2022-08-19T10:54:29;3.30;;;1.58;;
53391;SDS011;41667;51.922;8.850;2022-08-19T10:57:13;1.67;;;1.58;;
53391;SDS011;41667;51.922;8.850;2022-08-19T10:59:38;1.85;;;1.67;;
53391;SDS011;41667;51.922;8.850;2022-08-19T11:02:05;2.35;;;1.67;;
53391;SDS011;41667;51.922;8.850;2022-08-19T11:04:30;2.17;;;1.58;;
53391;SDS011;41667;51.922;8.850;2022-08-19T11:06:56;1.75;;;1.65;;
53391;SDS011;41667;51.922;8.850;2022-08-19T11:09:23;1.98;;;1.88;;
53391;SDS011;41667;51.922;8.850;2022-08-19T11:11:54;3.35;;;2.20;;
53391;SDS011;41667;51.922;8.850;2022-08-19T11:14:21;3.88;;;2.10;;
53391;SDS011;41667;51.922;8.850;2022-08-19T11:16:47;3.03;;;1.80;;
53391;SDS011;41667;51.922;8.850;2022-08-19T11:19:12;2.35;;;2.17;;
53391;SDS011;41667;51.922;8.850;2022-08-19T11:21:40;2.90;;;2.58;;
53391;SDS011;41667;51.922;8.850;2022-08-19T11:24:06;3.25;;;2.25;;
53391;SDS011;41667;51.922;8.850;2022-08-19T11:26:32;1.80;;;1.70;;
53391;SDS011;41667;51.922;8.850;2022-08-19T11:28:58;2.28;;;1.90;;
53391;SDS011;41667;51.922;8.850;2022-08-19T11:31:26;2.15;;;1.90;;
53391;SDS011;41667;51.922;8.850;2022-08-19T11:33:52;10.18;;;2.90;;
53391;SDS011;41667;51.922;8.850;2022-08-19T11:36:19;3.60;;;1.88;;
53391;SDS011;41667;51.922;8.850;2022-08-19T11:38:45;3.20;;;2.25;;
53391;SDS011;41667;51.922;8.850;2022-08-19T11:41:13;3.25;;;2.20;;
53391;SDS011;41667;51.922;8.850;2022-08-19T11:43:38;3.38;;;2.10;;
53391;SDS011;41667;51.922;8.850;2022-08-19T11:46:09;2.10;;;2.00;;
53391;SDS011;41667;51.922;8.850;2022-08-19T11:48:35;5.00;;;1.88;;
53391;SDS011;41667;51.922;8.850;2022-08-19T11:51:02;2.30;;;2.00;;
53391;SDS011;41667;51.922;8.850;2022-08-19T11:53:30;3.35;;;1.83;;
53391;SDS011;41667;51.922;8.850;2022-08-19T11:55:55;2.47;;;2.07;;
53391;SDS011;41667;51.922;8.850;2022-08-19T11:58:21;2.00;;;1.90;;
53391;SDS011;41667;51.922;8.850;2022-08-19T12:00:46;2.65;;;1.88;;
53391;SDS011;41667;51.922;8.850;2022-08-19T12:03:12;1.80;;;1.70;;
53391;SDS011;41667;51.922;8.850;2022-08-19T12:05:37;3.75;;;1.80;;
53391;SDS011;41667;51.922;8.850;2022-08-19T12:08:03;2.15;;;1.50;;
53391;SDS011;41667;51.922;8.850;2022-08-19T12:10:28;2.08;;;1.50;;
53391;SDS011;41667;51.922;8.850;2022-08-19T12:12:53;1.55;;;1.45;;
53391;SDS011;41667;51.922;8.850;2022-08-19T12:15:18;4.38;;;1.60;;
53391;SDS011;41667;51.922;8.850;2022-08-19T12:17:43;3.03;;;1.60;;
53391;SDS011;41667;51.922;8.850;2022-08-19T12:20:09;2.25;;;1.52;;
53391;SDS011;41667;51.922;8.850;2022-08-19T12:22:35;2.65;;;1.77;;
53391;SDS011;41667;51.922;8.850;2022-08-19T12:25:01;1.60;;;1.50;;
53391;SDS011;41667;51.922;8.850;2022-08-19T12:27:26;1.63;;;1.52;;
53391;SDS011;41667;51.922;8.850;2022-08-19T12:29:51;1.90;;;1.60;;
53391;SDS011;41667;51.922;8.850;2022-08-19T12:32:16;1.50;;;1.40;;
53391;SDS011;41667;51.922;8.850;2022-08-19T12:34:41;2.80;;;1.50;;
53391;SDS011;41667;51.922;8.850;2022-08-19T12:37:07;3.43;;;1.70;;
53391;SDS011;41667;51.922;8.850;2022-08-19T12:39:36;1.83;;;1.70;;
53391;SDS011;41667;51.922;8.850;2022-08-19T12:42:02;1.50;;;1.40;;
53391;SDS011;41667;51.922;8.850;2022-08-19T12:44:27;1.87;;;1.50;;
53391;SDS011;41667;51.922;8.850;2022-08-19T12:46:52;1.50;;;1.40;;
53391;SDS011;41667;51.922;8.850;2022-08-19T12:49:17;1.88;;;1.55;;
53391;SDS011;41667;51.922;8.850;2022-08-19T12:51:42;1.30;;;1.20;;
53391;SDS011;41667;51.922;8.850;2022-08-19T12:54:08;1.73;;;1.63;;
53391;SDS011;41667;51.922;8.850;2022-08-19T12:56:33;3.15;;;1.45;;
53391;SDS011;41667;51.922;8.850;2022-08-19T12:59:00;3.77;;;1.40;;
53391;SDS011;41667;51.922;8.850;2022-08-19T13:01:25;2.55;;;1.63;;
53391;SDS011;41667;51.922;8.850;2022-08-19T13:03:51;1.63;;;1.52;;
53391;SDS011;41667;51.922;8.850;2022-08-19T13:06:19;1.20;;;1.20;;
53391;SDS011;41667;51.922;8.850;2022-08-19T13:08:44;2.25;;;1.60;;
53391;SDS011;41667;51.922;8.850;2022-08-19T13:11:13;1.70;;;1.60;;
53391;SDS011;41667;51.922;8.850;2022-08-19T13:13:42;2.47;;;1.92;;
53391;SDS011;41667;51.922;8.850;2022-08-19T13:16:08;1.73;;;1.63;;
53391;SDS011;41667;51.922;8.850;2022-08-19T13:18:36;3.25;;;1.58;;
53391;SDS011;41667;51.922;8.850;2022-08-19T13:21:02;1.50;;;1.40;;
53391;SDS011;41667;51.922;8.850;2022-08-19T13:23:28;1.42;;;1.33;;
53391;SDS011;41667;51.922;8.850;2022-08-19T13:26:00;1.67;;;1.52;;
53391;SDS011;41667;51.922;8.850;2022-08-19T13:28:27;1.77;;;1.67;;
53391;SDS011;41667;51.922;8.850;2022-08-19T13:31:14;3.60;;;1.77;;
53391;SDS011;41667;51.922;8.850;2022-08-19T13:33:57;1.85;;;1.75;;
53391;SDS011;41667;51.922;8.850;2022-08-19T13:36:22;1.65;;;1.55;;
53391;SDS011;41667;51.922;8.850;2022-08-19T13:38:47;2.07;;;1.70;;
53391;SDS011;41667;51.922;8.850;2022-08-19T13:41:13;3.90;;;1.58;;
53391;SDS011;41667;51.922;8.850;2022-08-19T13:43:38;3.13;;;1.80;;
53391;SDS011;41667;51.922;8.850;2022-08-19T13:46:07;1.80;;;1.63;;
53391;SDS011;41667;51.922;8.850;2022-08-19T13:48:33;3.72;;;1.67;;
53391;SDS011;41667;51.922;8.850;2022-08-19T13:50:59;2.08;;;1.85;;
53391;SDS011;41667;51.922;8.850;2022-08-19T13:53:24;2.47;;;1.55;;
53391;SDS011;41667;51.922;8.850;2022-08-19T13:55:49;2.30;;;2.08;;
53391;SDS011;41667;51.922;8.850;2022-08-19T13:58:15;1.85;;;1.73;;
53391;SDS011;41667;51.922;8.850;2022-08-19T14:00:42;1.75;;;1.65;;
53391;SDS011;41667;51.922;8.850;2022-08-19T14:03:07;2.03;;;1.42;;
53391;SDS011;41667;51.922;8.850;2022-08-19T14:05:33;3.90;;;1.80;;
53391;SDS011;41667;51.922;8.850;2022-08-19T14:07:58;1.93;;;1.70;;
53391;SDS011;41667;51.922;8.850;2022-08-19T14:10:24;2.72;;;1.50;;
53391;SDS011;41667;51.922;8.850;2022-08-19T14:12:54;2.05;;;1.83;;
53391;SDS011;41667;51.922;8.850;2022-08-19T14:15:20;1.70;;;1.60;;
53391;SDS011;41667;51.922;8.850;2022-08-19T14:17:45;2.58;;;2.00;;
53391;SDS011;41667;51.922;8.850;2022-08-19T14:20:13;3.58;;;1.67;;
53391;SDS011;41667;51.922;8.850;2022-08-19T14:22:40;1.50;;;1.38;;
53391;SDS011;41667;51.922;8.850;2022-08-19T14:25:07;2.70;;;1.58;;
53391;SDS011;41667;51.922;8.850;2022-08-19T14:27:36;2.53;;;1.40;;
53391;SDS011;41667;51.922;8.850;2022-08-19T14:30:03;2.80;;;1.70;;
53391;SDS011;41667;51.922;8.850;2022-08-19T14:32:28;1.98;;;1.75;;
53391;SDS011;41667;51.922;8.850;2022-08-19T14:34:53;2.47;;;1.90;;
53391;SDS011;41667;51.922;8.850;2022-08-19T14:37:19;2.58;;;1.70;;
53391;SDS011;41667;51.922;8.850;2022-08-19T14:39:45;2.65;;;2.00;;
53391;SDS011;41667;51.922;8.850;2022-08-19T14:42:10;1.95;;;1.77;;
53391;SDS011;41667;51.922;8.850;2022-08-19T14:44:36;2.47;;;1.92;;
53391;SDS011;41667;51.922;8.850;2022-08-19T14:47:01;2.33;;;2.07;;
53391;SDS011;41667;51.922;8.850;2022-08-19T14:49:26;3.00;;;2.10;;
53391;SDS011;41667;51.922;8.850;2022-08-19T14:51:52;1.98;;;1.88;;
53391;SDS011;41667;51.922;8.850;2022-08-19T14:54:17;2.15;;;1.95;;